drdemartini.com alexa rank chart, drdemartini.com alexa rank daily changes

drdemartini.com alexa rank chart, drdemartini.com alexa rank daily changes

drdemartini.com
Actual rank:
441 962

RANK HISTORY

Date Rank Diff
2018/01/24 441 962 +1 584
2018/01/23 440 378 -3 155
2018/01/22 443 533 +1 463
2018/01/21 442 070 +6 587
2018/01/20 435 483 +5 177
2018/01/19 430 306 +14 199
2018/01/18 416 107 +14 819
2018/01/17 401 288 -11 286
2018/01/16 412 574 +9 545
2018/01/15 403 029 +3 055
2018/01/14 399 974 -7 400
2018/01/13 407 374 -8 294
2018/01/12 415 668 -18 654
2018/01/11 434 322 -19 332
2018/01/10 453 654 -15 744
2018/01/09 469 398 -8 545
2018/01/08 477 943 +11 070
2018/01/07 466 873 +8 180
2018/01/06 458 693 -13 327
2018/01/05 472 020 -35 171
2018/01/04 507 191 -6 966
2018/01/03 514 157 +25 627
2018/01/02 488 530 +24 092
2018/01/01 464 438 +7 377
2017/12/31 457 061 +316
2017/12/30 456 745 -2 735
2017/12/29 459 480 +22 207
2017/12/28 437 273 -3 650
2017/12/27 440 923 +10 085
2017/12/26 430 838 -427
2017/12/25 431 265 +15 330
2017/12/24 415 935 +1 054
2017/12/23 414 881 +22 137
2017/12/22 392 744 +10 388
2017/12/21 382 356 -11 635
2017/12/20 393 991 -3 969
2017/12/19 397 960 -13 151
2017/12/18 411 111 -673
2017/12/17 411 784 +31 595
2017/12/16 380 189 -4 117
2017/12/15 384 306 +660
2017/12/14 383 646 -2 390
2017/12/13 386 036 -5 431
2017/12/12 391 467 +8 276
2017/12/11 383 191 +648
2017/12/10 382 543 +2 859
2017/12/09 379 684 +1 310
2017/12/08 378 374 -5 961
2017/12/07 384 335 +18 995
2017/12/06 365 340 -775
2017/12/05 366 115 +281
2017/12/04 365 834 +3 260
2017/12/03 362 574 -10 893
2017/12/02 373 467 -16 841
2017/12/01 390 308 +2 465
2017/11/30 387 843 -9 198
2017/11/29 397 041 +4 292
2017/11/28 392 749 +2 535
2017/11/27 390 214 -9 709
2017/11/26 399 923 +14 531
2017/11/25 385 392

WIDGET FOR YOUR SITE

DOMAINS WITH THE NEAREST RANK

Domain Rank
silavsicilia.it 441 957
britishcouncil.org.tw 441 958
sdsm.k12.wi.us 441 959
pitupitu.pl 441 960
kabarotomotif.website 441 961
drdemartini.com 441 962
bewerbung-muster.eu 441 963
tightteensgalleries.com 441 964
becas-santander.com 441 965
activation-windows.com 441 966
welfarepartners.ie 441 967

DOMAINS WITH THE NEAREST RANK BY TLD .com

Domain Rank
eroticspam.com 441 949
zypfyjy.com 441 950
pupugames.com 441 953
lumoplay.com 441 954
gmat.com 441 956
drdemartini.com 441 962
tightteensgalleries.com 441 964
becas-santander.com 441 965
activation-windows.com 441 966
templateclue.com 441 968
econtechnologies.com 441 970